Terminal Aerodrome Forecast
Issued by NWS

Home | Current Version | Previous Version | Graphics & Text | Print | Product List | Glossary On
Versions: 1 2 3 4 5 6 7 8 9 10 11 12 13 14 15 16 17 18 19
000
FTUS43 KBIS 012144 AAA
TAFDIK
TAF AMD
KDIK 012144Z 0122/0218 25016G25KT P6SM SCT090
     FM020100 19008KT P6SM SCT150
     FM021600 28015KT P6SM SCT120=

USA.gov is the U.S. government's official web portal to all federal, state and local government web resources and services.